Time;durP1;ratioP1;P1;durP2;ratioP2;P2;SDS_P1;SDS_P2;PMS_P1;PMS_P2;Temp;Humidity;BMP_temperature;BMP_pressure;BME280_temperature;BME280_humidity;BME280_pressure;Samples;Min_cycle;Max_cycle;Signal;HPM_P1;HPM_P2
2023/11/01 00:00:48;;;;;;;0.00;0.00;;;;;;;;;;10366286;28;20387;-66
2023/11/01 00:05:48;;;;;;;0.00;0.00;;;;;;;;;;10367738;28;20014;-67
2023/11/01 00:10:49;;;;;;;0.00;0.00;;;;;;;;;;10374421;28;20045;-67
2023/11/01 00:15:49;;;;;;;0.00;0.00;;;;;;;;;;10364980;28;20010;-66
2023/11/01 00:20:49;;;;;;;0.00;0.00;;;;;;;;;;10370863;28;20026;-66
2023/11/01 00:25:49;;;;;;;0.00;0.00;;;;;;;;;;10377859;28;20078;-67
2023/11/01 00:30:49;;;;;;;0.00;0.00;;;;;;;;;;10377264;28;20017;-66
2023/11/01 00:35:49;;;;;;;0.00;0.00;;;;;;;;;;10375832;28;20014;-66
2023/11/01 00:40:50;;;;;;;0.00;0.00;;;;;;;;;;10377202;28;20048;-67
2023/11/01 00:45:50;;;;;;;0.00;0.00;;;;;;;;;;10381938;28;20018;-67
2023/11/01 00:50:50;;;;;;;0.00;0.00;;;;;;;;;;10380856;28;20038;-67
2023/11/01 00:55:50;;;;;;;0.00;0.00;;;;;;;;;;10370449;28;20042;-67
2023/11/01 01:00:50;;;;;;;0.10;0.10;;;;;;;;;;10377387;28;20018;-65
2023/11/01 01:05:50;;;;;;;0.00;0.00;;;;;;;;;;10373992;28;20014;-66
2023/11/01 01:10:51;;;;;;;0.00;0.00;;;;;;;;;;10377868;28;20483;-66
2023/11/01 01:15:51;;;;;;;0.00;0.00;;;;;;;;;;10385562;28;20375;-66
2023/11/01 01:20:51;;;;;;;0.00;0.00;;;;;;;;;;10383598;28;20021;-67
2023/11/01 01:25:51;;;;;;;0.00;0.00;;;;;;;;;;10371842;28;20096;-67
2023/11/01 01:30:51;;;;;;;0.00;0.00;;;;;;;;;;10371369;28;20105;-67
2023/11/01 01:35:52;;;;;;;0.00;0.00;;;;;;;;;;10383862;28;20028;-67
2023/11/01 01:40:52;;;;;;;0.00;0.00;;;;;;;;;;10386016;28;20034;-67
2023/11/01 01:45:58;;;;;;;0.00;0.00;;;;;;;;;;10384794;28;20045;-67
2023/11/01 01:50:58;;;;;;;0.00;0.00;;;;;;;;;;10388757;28;20025;-67
2023/11/01 01:55:59;;;;;;;0.00;0.00;;;;;;;;;;10380819;28;20067;-67
2023/11/01 02:00:59;;;;;;;0.08;0.08;;;;;;;;;;10381275;28;20009;-67
2023/11/01 02:06:01;;;;;;;0.00;0.00;;;;;;;;;;10394798;28;20013;-66
2023/11/01 02:11:02;;;;;;;0.10;0.10;;;;;;;;;;10379758;28;20291;-67
2023/11/01 02:16:03;;;;;;;0.10;0.10;;;;;;;;;;10400866;28;20022;-67
2023/11/01 02:21:04;;;;;;;0.00;0.00;;;;;;;;;;10376516;28;20025;-66
2023/11/01 02:26:04;;;;;;;0.00;0.00;;;;;;;;;;10390190;28;20912;-67
2023/11/01 02:31:04;;;;;;;0.00;0.00;;;;;;;;;;10385489;28;20033;-67
2023/11/01 02:36:05;;;;;;;0.10;0.10;;;;;;;;;;10380530;28;20558;-67
2023/11/01 02:41:05;;;;;;;0.00;0.00;;;;;;;;;;10384709;28;20021;-66
2023/11/01 02:46:05;;;;;;;0.00;0.00;;;;;;;;;;10388031;28;20543;-67
2023/11/01 02:51:05;;;;;;;0.00;0.00;;;;;;;;;;10378675;28;20368;-66
2023/11/01 02:56:06;;;;;;;0.00;0.00;;;;;;;;;;10382444;28;20087;-66
2023/11/01 03:01:07;;;;;;;0.00;0.00;;;;;;;;;;10379221;28;20033;-66
2023/11/01 03:06:07;;;;;;;0.10;0.10;;;;;;;;;;10376127;28;20022;-66
2023/11/01 03:11:07;;;;;;;0.00;0.00;;;;;;;;;;10379643;28;20071;-66
2023/11/01 03:16:08;;;;;;;0.10;0.10;;;;;;;;;;10379366;28;20033;-66
2023/11/01 03:21:09;;;;;;;0.08;0.08;;;;;;;;;;10378787;28;20068;-66
2023/11/01 03:26:09;;;;;;;0.10;0.10;;;;;;;;;;10384450;28;20053;-67
2023/11/01 03:31:09;;;;;;;0.00;0.00;;;;;;;;;;10373247;28;20026;-67
2023/11/01 03:36:09;;;;;;;0.10;0.10;;;;;;;;;;10385316;28;20026;-67
2023/11/01 03:41:10;;;;;;;0.00;0.00;;;;;;;;;;10380882;28;20050;-67
2023/11/01 03:46:10;;;;;;;0.00;0.00;;;;;;;;;;10378067;28;20022;-66
2023/11/01 03:51:10;;;;;;;0.00;0.00;;;;;;;;;;10376307;28;20125;-66
2023/11/01 03:56:12;;;;;;;0.00;0.00;;;;;;;;;;10379989;28;20374;-66
2023/11/01 04:01:12;;;;;;;0.00;0.00;;;;;;;;;;10381735;28;20076;-66
2023/11/01 04:06:12;;;;;;;0.00;0.00;;;;;;;;;;10378257;28;20025;-66
2023/11/01 04:11:12;;;;;;;0.00;0.00;;;;;;;;;;10384960;28;20018;-66
2023/11/01 04:16:12;;;;;;;0.00;0.00;;;;;;;;;;10388389;28;20026;-67
2023/11/01 04:21:12;;;;;;;0.00;0.00;;;;;;;;;;10389699;28;20122;-66
2023/11/01 04:26:12;;;;;;;0.00;0.00;;;;;;;;;;10383533;28;20025;-67
2023/11/01 04:31:14;;;;;;;0.00;0.00;;;;;;;;;;10391453;28;20467;-67
2023/11/01 04:36:14;;;;;;;0.10;0.10;;;;;;;;;;10392446;28;20390;-66
2023/11/01 04:41:14;;;;;;;0.00;0.00;;;;;;;;;;10374931;28;20025;-67
2023/11/01 04:46:14;;;;;;;0.10;0.10;;;;;;;;;;10382720;28;20028;-67
2023/11/01 04:51:14;;;;;;;0.10;0.10;;;;;;;;;;10384297;28;20502;-66
2023/11/01 04:56:15;;;;;;;0.00;0.00;;;;;;;;;;10373569;28;20029;-66
2023/11/01 05:01:15;;;;;;;0.00;0.00;;;;;;;;;;10386837;28;20022;-67
2023/11/01 05:06:15;;;;;;;0.00;0.00;;;;;;;;;;10382017;28;20105;-66
2023/11/01 05:11:15;;;;;;;0.10;0.10;;;;;;;;;;10393052;28;20029;-66
2023/11/01 05:16:16;;;;;;;0.10;0.10;;;;;;;;;;10392535;28;20116;-65
2023/11/01 05:21:16;;;;;;;0.00;0.00;;;;;;;;;;10390513;28;20018;-66
2023/11/01 05:26:16;;;;;;;0.00;0.00;;;;;;;;;;10392778;28;20052;-66
2023/11/01 05:31:16;;;;;;;0.10;0.10;;;;;;;;;;10383312;28;20483;-67
2023/11/01 05:36:17;;;;;;;0.00;0.00;;;;;;;;;;10382256;28;20026;-66
2023/11/01 05:41:17;;;;;;;0.03;0.03;;;;;;;;;;10386153;28;20356;-66
2023/11/01 05:46:21;;;;;;;0.10;0.10;;;;;;;;;;10376125;28;20371;-65
2023/11/01 05:51:21;;;;;;;0.00;0.00;;;;;;;;;;10395666;28;20018;-66
2023/11/01 05:56:23;;;;;;;0.00;0.00;;;;;;;;;;10381417;28;20030;-67
2023/11/01 06:01:26;;;;;;;0.00;0.00;;;;;;;;;;10397104;28;20353;-66
2023/11/01 06:06:26;;;;;;;0.00;0.00;;;;;;;;;;10381788;28;20080;-67
2023/11/01 06:11:26;;;;;;;0.00;0.00;;;;;;;;;;10382866;28;20017;-67
2023/11/01 06:16:26;;;;;;;0.00;0.00;;;;;;;;;;10391162;28;20022;-66
2023/11/01 06:21:27;;;;;;;0.10;0.10;;;;;;;;;;10390159;28;20017;-67
2023/11/01 06:26:27;;;;;;;0.10;0.10;;;;;;;;;;10382156;28;20022;-66
2023/11/01 06:31:27;;;;;;;0.00;0.00;;;;;;;;;;10389712;28;20824;-66
2023/11/01 06:36:27;;;;;;;0.00;0.00;;;;;;;;;;10379754;28;20042;-66
2023/11/01 06:41:28;;;;;;;0.00;0.00;;;;;;;;;;10388509;28;20025;-66
2023/11/01 06:46:28;;;;;;;0.10;0.10;;;;;;;;;;10390598;28;20128;-65
2023/11/01 06:51:28;;;;;;;0.00;0.00;;;;;;;;;;10379381;28;20025;-65
2023/11/01 06:56:28;;;;;;;0.10;0.10;;;;;;;;;;10384541;28;20030;-67
2023/11/01 07:01:28;;;;;;;0.10;0.10;;;;;;;;;;10381456;28;20029;-66
2023/11/01 07:06:28;;;;;;;0.00;0.00;;;;;;;;;;10378663;28;20383;-67
2023/11/01 07:11:29;;;;;;;0.00;0.00;;;;;;;;;;10376182;28;20040;-67
2023/11/01 07:16:29;;;;;;;0.00;0.00;;;;;;;;;;10385960;28;20017;-67
2023/11/01 07:21:29;;;;;;;0.00;0.00;;;;;;;;;;10386706;28;20014;-67
2023/11/01 07:26:29;;;;;;;0.00;0.00;;;;;;;;;;10375519;28;20018;-67
2023/11/01 07:31:30;;;;;;;0.10;0.10;;;;;;;;;;10368709;28;20116;-67
2023/11/01 07:36:30;;;;;;;0.10;0.10;;;;;;;;;;10376994;28;20022;-66
2023/11/01 07:41:31;;;;;;;0.00;0.00;;;;;;;;;;10381279;28;20037;-67
2023/11/01 07:46:31;;;;;;;0.00;0.00;;;;;;;;;;10371179;28;20013;-67
2023/11/01 07:51:33;;;;;;;0.10;0.10;;;;;;;;;;10378174;28;20037;-66
2023/11/01 07:56:33;;;;;;;0.10;0.10;;;;;;;;;;10365975;28;20608;-67
2023/11/01 08:01:36;;;;;;;0.10;0.10;;;;;;;;;;10379611;28;20022;-67
2023/11/01 08:06:37;;;;;;;0.10;0.10;;;;;;;;;;10379366;28;20024;-65
2023/11/01 08:11:37;;;;;;;0.00;0.00;;;;;;;;;;10379867;28;20013;-67
2023/11/01 08:16:37;;;;;;;0.00;0.00;;;;;;;;;;10375234;28;20026;-67
2023/11/01 08:21:37;;;;;;;0.00;0.00;;;;;;;;;;10363476;28;20020;-66
2023/11/01 08:26:38;;;;;;;0.00;0.00;;;;;;;;;;10377286;28;20022;-65
2023/11/01 08:31:40;;;;;;;0.00;0.00;;;;;;;;;;10384314;28;20049;-66
2023/11/01 08:36:40;;;;;;;0.10;0.10;;;;;;;;;;10369074;28;20022;-66
2023/11/01 08:41:40;;;;;;;0.10;0.10;;;;;;;;;;10364559;28;20067;-66
2023/11/01 08:46:40;;;;;;;0.10;0.10;;;;;;;;;;10371418;28;20471;-67
2023/11/01 08:51:41;;;;;;;0.00;0.00;;;;;;;;;;10371179;28;20025;-69
2023/11/01 08:56:42;;;;;;;0.00;0.00;;;;;;;;;;10385116;28;20024;-69
2023/11/01 09:01:42;;;;;;;0.10;0.10;;;;;;;;;;10379599;28;20018;-68
2023/11/01 09:06:42;;;;;;;0.10;0.10;;;;;;;;;;10384426;28;20026;-68
2023/11/01 09:11:42;;;;;;;0.00;0.00;;;;;;;;;;10375866;28;20100;-69
2023/11/01 09:16:42;;;;;;;0.00;0.00;;;;;;;;;;10381255;28;20025;-68
2023/11/01 09:21:43;;;;;;;0.10;0.10;;;;;;;;;;10388655;28;20014;-69
2023/11/01 09:26:43;;;;;;;0.10;0.10;;;;;;;;;;10387599;28;20072;-68
2023/11/01 09:31:43;;;;;;;0.00;0.00;;;;;;;;;;10384470;28;20026;-69
2023/11/01 09:36:43;;;;;;;0.10;0.10;;;;;;;;;;10382779;28;20473;-68
2023/11/01 09:41:46;;;;;;;0.00;0.00;;;;;;;;;;10386133;28;20460;-68
2023/11/01 09:46:47;;;;;;;0.10;0.10;;;;;;;;;;10388158;28;20021;-68
2023/11/01 09:51:48;;;;;;;0.10;0.10;;;;;;;;;;10375666;28;20138;-67
2023/11/01 09:56:49;;;;;;;0.00;0.00;;;;;;;;;;10388852;28;20104;-69
2023/11/01 10:01:49;;;;;;;0.10;0.10;;;;;;;;;;10396317;28;20468;-68
2023/11/01 10:06:49;;;;;;;0.05;0.05;;;;;;;;;;10388045;28;20022;-67
2023/11/01 10:11:50;;;;;;;0.10;0.10;;;;;;;;;;10376521;28;20022;-68
2023/11/01 10:16:50;;;;;;;0.10;0.10;;;;;;;;;;10368812;28;20030;-67
2023/11/01 10:21:51;;;;;;;0.10;0.10;;;;;;;;;;10392977;28;20030;-68
2023/11/01 10:26:51;;;;;;;0.00;0.00;;;;;;;;;;10375169;28;20441;-67
2023/11/01 10:31:53;;;;;;;0.10;0.10;;;;;;;;;;10375823;28;20072;-67
2023/11/01 10:36:54;;;;;;;0.00;0.00;;;;;;;;;;10382398;28;20113;-67
2023/11/01 10:41:54;;;;;;;0.10;0.10;;;;;;;;;;10387315;28;20105;-67
2023/11/01 10:46:55;;;;;;;0.10;0.10;;;;;;;;;;10385261;28;20032;-68
2023/11/01 10:51:56;;;;;;;0.05;0.05;;;;;;;;;;10382848;28;20029;-68
2023/11/01 10:56:58;;;;;;;0.10;0.10;;;;;;;;;;10383493;28;20044;-67
2023/11/01 11:02:16;;;;;;;0.08;0.08;;;;;;;;;;10381788;28;20494;-67
2023/11/01 11:07:19;;;;;;;0.10;0.10;;;;;;;;;;10378107;28;20017;-68
2023/11/01 11:12:21;;;;;;;0.07;0.07;;;;;;;;;;10390998;28;20412;-67
2023/11/01 11:17:23;;;;;;;0.00;0.00;;;;;;;;;;10387789;28;20022;-67
2023/11/01 11:22:24;;;;;;;0.10;0.10;;;;;;;;;;10380894;28;20014;-67
2023/11/01 11:27:48;;;;;;;0.10;0.10;;;;;;;;;;10385428;28;20495;-67
2023/11/01 11:33:04;;;;;;;0.05;0.05;;;;;;;;;;10396585;28;20394;-68
2023/11/01 11:38:23;;;;;;;0.10;0.10;;;;;;;;;;10378522;28;20467;-67
2023/11/01 11:43:44;;;;;;;0.10;0.10;;;;;;;;;;10374932;28;20790;-68
2023/11/01 11:48:44;;;;;;;0.10;0.10;;;;;;;;;;10381633;28;20026;-68
2023/11/01 11:53:45;;;;;;;0.00;0.00;;;;;;;;;;10380476;28;20039;-67
2023/11/01 11:58:46;;;;;;;0.10;0.10;;;;;;;;;;10375791;28;20041;-67
2023/11/01 12:03:47;;;;;;;0.10;0.10;;;;;;;;;;10374482;28;20056;-73
2023/11/01 12:08:48;;;;;;;0.10;0.10;;;;;;;;;;10408177;28;20030;-74
2023/11/01 12:13:49;;;;;;;0.10;0.10;;;;;;;;;;10370598;28;20018;-74
2023/11/01 12:19:05;;;;;;;0.10;0.10;;;;;;;;;;10374345;28;20603;-72
2023/11/01 12:24:05;;;;;;;0.10;0.10;;;;;;;;;;10384188;28;20394;-73
2023/11/01 12:29:09;;;;;;;0.00;0.00;;;;;;;;;;10381297;28;20097;-71
2023/11/01 12:34:10;;;;;;;0.10;0.10;;;;;;;;;;10383987;28;20506;-76
2023/11/01 12:39:10;;;;;;;0.10;0.10;;;;;;;;;;10361138;28;20024;-72
2023/11/01 12:44:11;;;;;;;0.10;0.10;;;;;;;;;;10370720;28;20041;-73
2023/11/01 12:49:11;;;;;;;0.10;0.10;;;;;;;;;;10399756;28;20507;-72
2023/11/01 12:54:11;;;;;;;0.10;0.10;;;;;;;;;;10393137;28;20372;-70
2023/11/01 12:59:12;;;;;;;0.00;0.00;;;;;;;;;;10388714;28;20072;-70
2023/11/01 13:04:12;;;;;;;0.10;0.10;;;;;;;;;;10381400;28;20106;-68
2023/11/01 13:09:14;;;;;;;0.10;0.10;;;;;;;;;;10384514;28;20101;-70
2023/11/01 13:14:14;;;;;;;0.10;0.10;;;;;;;;;;10377628;28;20018;-67
2023/11/01 13:19:16;;;;;;;0.10;0.10;;;;;;;;;;10387963;28;20033;-68
2023/11/01 13:24:16;;;;;;;0.10;0.10;;;;;;;;;;10377863;28;20021;-68
2023/11/01 13:29:16;;;;;;;0.10;0.10;;;;;;;;;;10380803;28;20021;-71
2023/11/01 13:34:17;;;;;;;0.10;0.10;;;;;;;;;;10369798;28;20030;-71
2023/11/01 13:39:17;;;;;;;0.10;0.10;;;;;;;;;;10395478;28;20017;-69
2023/11/01 13:44:18;;;;;;;0.10;0.10;;;;;;;;;;10394427;28;20022;-70
2023/11/01 13:49:18;;;;;;;0.10;0.10;;;;;;;;;;10380488;28;20020;-72
2023/11/01 13:54:18;;;;;;;0.00;0.00;;;;;;;;;;10382949;28;20037;-69
2023/11/01 13:59:19;;;;;;;0.10;0.10;;;;;;;;;;10376052;28;20010;-71
2023/11/01 14:04:19;;;;;;;0.10;0.10;;;;;;;;;;10377863;28;20347;-70
2023/11/01 14:09:19;;;;;;;0.00;0.00;;;;;;;;;;10383976;28;20018;-73
2023/11/01 14:14:21;;;;;;;0.10;0.10;;;;;;;;;;10388943;28;20025;-73
2023/11/01 14:19:21;;;;;;;0.10;0.10;;;;;;;;;;10383791;28;20272;-69
2023/11/01 14:24:21;;;;;;;0.08;0.08;;;;;;;;;;10388001;28;20021;-71
2023/11/01 14:29:22;;;;;;;0.00;0.00;;;;;;;;;;10368495;28;20460;-71
2023/11/01 14:34:22;;;;;;;0.00;0.00;;;;;;;;;;10388300;28;20547;-71
2023/11/01 14:39:22;;;;;;;0.10;0.10;;;;;;;;;;10388229;28;20021;-73
2023/11/01 14:44:23;;;;;;;0.10;0.10;;;;;;;;;;10384018;28;20022;-69
2023/11/01 14:49:23;;;;;;;0.10;0.10;;;;;;;;;;10372480;28;20060;-70
2023/11/01 14:54:25;;;;;;;0.10;0.10;;;;;;;;;;10377279;28;20080;-69
2023/11/01 14:59:25;;;;;;;0.10;0.10;;;;;;;;;;10350711;28;20018;-69
2023/11/01 15:04:25;;;;;;;0.10;0.10;;;;;;;;;;10362389;28;20018;-69
2023/11/01 15:09:26;;;;;;;0.10;0.10;;;;;;;;;;10371375;28;20030;-69
2023/11/01 15:14:28;;;;;;;0.10;0.10;;;;;;;;;;10361791;28;20026;-70
2023/11/01 15:19:28;;;;;;;0.10;0.10;;;;;;;;;;10365594;28;20014;-70
2023/11/01 15:24:28;;;;;;;0.00;0.00;;;;;;;;;;10367810;28;20105;-70
2023/11/01 15:29:28;;;;;;;0.10;0.10;;;;;;;;;;10373339;28;20025;-69
2023/11/01 15:34:30;;;;;;;0.10;0.10;;;;;;;;;;10361165;28;20032;-70
2023/11/01 15:39:30;;;;;;;0.10;0.10;;;;;;;;;;10367057;28;20081;-70
2023/11/01 15:44:30;;;;;;;0.10;0.10;;;;;;;;;;10358333;28;20060;-70
2023/11/01 15:49:30;;;;;;;0.10;0.10;;;;;;;;;;10357502;28;20443;-70
2023/11/01 15:54:30;;;;;;;0.10;0.10;;;;;;;;;;10356852;28;20026;-70
2023/11/01 15:59:31;;;;;;;0.10;0.10;;;;;;;;;;10369372;28;20113;-68
2023/11/01 16:04:31;;;;;;;0.10;0.10;;;;;;;;;;10376115;28;20022;-69
2023/11/01 16:09:34;;;;;;;0.10;0.10;;;;;;;;;;10378752;28;20036;-69
2023/11/01 16:14:34;;;;;;;0.10;0.10;;;;;;;;;;10374853;28;20036;-70
2023/11/01 16:19:34;;;;;;;0.10;0.10;;;;;;;;;;10384858;28;20018;-70
2023/11/01 16:24:34;;;;;;;0.10;0.10;;;;;;;;;;10380905;28;20021;-70
2023/11/01 16:29:34;;;;;;;0.10;0.10;;;;;;;;;;10401016;28;20075;-71
2023/11/01 16:34:37;;;;;;;0.10;0.10;;;;;;;;;;10397517;28;20096;-71
2023/11/01 16:39:38;;;;;;;0.10;0.10;;;;;;;;;;10404910;28;20124;-70
2023/11/01 16:44:39;;;;;;;0.00;0.00;;;;;;;;;;10398960;28;20097;-71
2023/11/01 16:49:42;;;;;;;0.10;0.10;;;;;;;;;;10403929;28;20026;-71
2023/11/01 16:54:42;;;;;;;0.10;0.10;;;;;;;;;;10383206;28;20025;-72
2023/11/01 16:59:42;;;;;;;0.00;0.00;;;;;;;;;;10383018;28;20475;-72
2023/11/01 17:04:42;;;;;;;0.10;0.10;;;;;;;;;;10403948;28;20017;-73
2023/11/01 17:09:43;;;;;;;0.10;0.10;;;;;;;;;;10422964;28;20028;-72
2023/11/01 17:14:44;;;;;;;0.10;0.10;;;;;;;;;;10417318;28;20049;-72
2023/11/01 17:19:45;;;;;;;0.00;0.00;;;;;;;;;;10403573;28;20288;-72
2023/11/01 17:24:45;;;;;;;0.00;0.00;;;;;;;;;;10385912;28;20017;-72
2023/11/01 17:29:45;;;;;;;0.10;0.10;;;;;;;;;;10397833;28;20021;-72
2023/11/01 17:34:46;;;;;;;0.00;0.00;;;;;;;;;;10416920;28;20037;-72
2023/11/01 17:39:51;;;;;;;0.10;0.10;;;;;;;;;;10416792;28;20025;-73
2023/11/01 17:44:52;;;;;;;0.10;0.10;;;;;;;;;;10415201;28;20021;-70
2023/11/01 17:49:54;;;;;;;0.10;0.10;;;;;;;;;;10414946;28;20057;-72
2023/11/01 17:54:56;;;;;;;0.10;0.10;;;;;;;;;;10400276;28;20414;-71
2023/11/01 17:59:56;;;;;;;0.10;0.10;;;;;;;;;;10390620;28;20021;-71
2023/11/01 18:04:57;;;;;;;0.00;0.00;;;;;;;;;;10376911;28;20018;-72
2023/11/01 18:09:58;;;;;;;0.10;0.10;;;;;;;;;;10373409;28;20105;-72
2023/11/01 18:14:58;;;;;;;0.00;0.00;;;;;;;;;;10373164;28;20108;-73
2023/11/01 18:20:09;;;;;;;0.00;0.00;;;;;;;;;;10373127;28;20018;-73
2023/11/01 18:25:30;;;;;;;0.03;0.03;;;;;;;;;;10404642;28;20041;-72
2023/11/01 18:30:31;;;;;;;0.00;0.00;;;;;;;;;;10404158;28;20041;-72
2023/11/01 18:35:32;;;;;;;0.00;0.00;;;;;;;;;;10414717;28;20035;-73
2023/11/01 18:40:33;;;;;;;0.10;0.10;;;;;;;;;;10414336;28;20029;-72
2023/11/01 18:45:35;;;;;;;0.10;0.10;;;;;;;;;;10414885;28;20014;-72
2023/11/01 18:50:35;;;;;;;0.10;0.10;;;;;;;;;;10414083;28;20071;-72
2023/11/01 18:55:35;;;;;;;0.10;0.10;;;;;;;;;;10413881;28;20025;-71
2023/11/01 19:00:36;;;;;;;0.00;0.00;;;;;;;;;;10413520;28;20545;-71
2023/11/01 19:05:38;;;;;;;0.00;0.00;;;;;;;;;;10413544;28;20022;-72
2023/11/01 19:10:40;;;;;;;0.10;0.10;;;;;;;;;;10411900;28;20021;-72
2023/11/01 19:15:54;;;;;;;0.10;0.10;;;;;;;;;;10413054;28;20021;-71
2023/11/01 19:20:54;;;;;;;0.10;0.10;;;;;;;;;;10411612;28;20483;-71
2023/11/01 19:25:55;;;;;;;0.00;0.00;;;;;;;;;;10412707;28;20025;-72
2023/11/01 19:30:55;;;;;;;0.10;0.10;;;;;;;;;;10389780;28;20594;-71
2023/11/01 19:35:55;;;;;;;0.00;0.00;;;;;;;;;;10393812;28;20067;-72
2023/11/01 19:40:55;;;;;;;0.10;0.10;;;;;;;;;;10412286;28;20017;-71
2023/11/01 19:45:56;;;;;;;0.10;0.10;;;;;;;;;;10412122;28;20079;-71
2023/11/01 19:51:02;;;;;;;0.10;0.10;;;;;;;;;;10411996;28;20032;-71
2023/11/01 19:56:03;;;;;;;0.08;0.08;;;;;;;;;;10412129;28;20479;-71
2023/11/01 20:01:03;;;;;;;0.00;0.00;;;;;;;;;;10396593;28;20022;-71
2023/11/01 20:06:04;;;;;;;0.10;0.10;;;;;;;;;;10370901;28;20384;-71
2023/11/01 20:11:04;;;;;;;0.10;0.10;;;;;;;;;;10387102;28;20416;-71
2023/11/01 20:16:04;;;;;;;0.00;0.00;;;;;;;;;;10394032;28;20028;-71
2023/11/01 20:21:04;;;;;;;0.10;0.10;;;;;;;;;;10386383;28;20108;-72
2023/11/01 20:26:04;;;;;;;0.10;0.10;;;;;;;;;;10410065;28;20020;-72
2023/11/01 20:31:05;;;;;;;0.10;0.10;;;;;;;;;;10411257;28;20017;-71
2023/11/01 20:36:05;;;;;;;0.00;0.00;;;;;;;;;;10411184;28;20420;-72
2023/11/01 20:41:05;;;;;;;0.10;0.10;;;;;;;;;;10409800;28;20021;-72
2023/11/01 20:46:06;;;;;;;0.10;0.10;;;;;;;;;;10412566;28;20029;-72
2023/11/01 20:51:10;;;;;;;0.10;0.10;;;;;;;;;;10417150;28;20044;-71
2023/11/01 20:56:10;;;;;;;0.10;0.10;;;;;;;;;;10418374;28;20159;-72
2023/11/01 21:01:10;;;;;;;0.10;0.10;;;;;;;;;;10416984;28;20117;-72
2023/11/01 21:06:11;;;;;;;0.10;0.10;;;;;;;;;;10417977;28;20494;-72
2023/11/01 21:11:11;;;;;;;0.00;0.00;;;;;;;;;;10418465;28;20021;-72
2023/11/01 21:16:11;;;;;;;0.10;0.10;;;;;;;;;;10393847;28;20022;-72
2023/11/01 21:21:12;;;;;;;0.10;0.10;;;;;;;;;;10376632;28;20034;-72
2023/11/01 21:26:12;;;;;;;0.10;0.10;;;;;;;;;;10375115;28;20438;-72
2023/11/01 21:31:12;;;;;;;0.00;0.00;;;;;;;;;;10376209;28;20124;-72
2023/11/01 21:36:12;;;;;;;0.10;0.10;;;;;;;;;;10376122;28;20099;-72
2023/11/01 21:41:12;;;;;;;0.10;0.10;;;;;;;;;;10375799;28;20026;-72
2023/11/01 21:46:13;;;;;;;0.10;0.10;;;;;;;;;;10375721;28;20042;-72
2023/11/01 21:51:13;;;;;;;0.00;0.00;;;;;;;;;;10374240;28;20109;-72
2023/11/01 21:56:18;;;;;;;0.00;0.00;;;;;;;;;;10375262;28;20100;-72
2023/11/01 22:01:20;;;;;;;0.10;0.10;;;;;;;;;;10373594;28;20029;-72
2023/11/01 22:06:28;;;;;;;0.00;0.00;;;;;;;;;;10374898;28;20467;-72
2023/11/01 22:11:29;;;;;;;0.00;0.00;;;;;;;;;;10374836;28;20568;-72
2023/11/01 22:16:30;;;;;;;0.10;0.10;;;;;;;;;;10374438;28;20113;-72
2023/11/01 22:21:33;;;;;;;0.00;0.00;;;;;;;;;;10374260;28;20109;-72
2023/11/01 22:26:34;;;;;;;0.10;0.10;;;;;;;;;;10374143;28;20144;-71
2023/11/01 22:31:36;;;;;;;0.03;0.03;;;;;;;;;;10373959;28;20129;-71
2023/11/01 22:36:47;;;;;;;0.00;0.00;;;;;;;;;;10373639;28;20549;-72
2023/11/01 22:41:47;;;;;;;0.00;0.00;;;;;;;;;;10372163;28;20024;-72
2023/11/01 22:46:47;;;;;;;0.10;0.10;;;;;;;;;;10372121;28;20022;-71
2023/11/01 22:51:47;;;;;;;0.10;0.10;;;;;;;;;;10373140;28;20120;-72
2023/11/01 22:56:47;;;;;;;0.00;0.00;;;;;;;;;;10372617;28;20018;-69
2023/11/01 23:01:49;;;;;;;0.00;0.00;;;;;;;;;;10372928;28;20017;-71
2023/11/01 23:06:49;;;;;;;0.10;0.10;;;;;;;;;;10372517;28;20475;-71
2023/11/01 23:11:50;;;;;;;0.10;0.10;;;;;;;;;;10388331;28;20030;-70
2023/11/01 23:16:50;;;;;;;0.10;0.10;;;;;;;;;;10372077;28;20017;-71
2023/11/01 23:21:50;;;;;;;0.10;0.10;;;;;;;;;;10372179;28;20100;-71
2023/11/01 23:26:53;;;;;;;0.10;0.10;;;;;;;;;;10371988;28;20018;-71
2023/11/01 23:31:53;;;;;;;0.10;0.10;;;;;;;;;;10381721;28;20033;-70
2023/11/01 23:36:53;;;;;;;0.03;0.03;;;;;;;;;;10403073;28;20089;-71
2023/11/01 23:41:53;;;;;;;0.00;0.00;;;;;;;;;;10371690;28;20467;-70
2023/11/01 23:46:54;;;;;;;0.10;0.10;;;;;;;;;;10354893;28;20022;-71
2023/11/01 23:51:56;;;;;;;0.10;0.10;;;;;;;;;;10390098;28;20029;-71
2023/11/01 23:56:56;;;;;;;0.10;0.10;;;;;;;;;;10410485;28;20033;-72
